Impacts METAR Board
IDs:

KCPT - Cleburne Muni, TX, US

Updated at: 0500 UTC 19 Aug 2019
Potential Impact None Slight Moderate High
Time 18/17Z 18/18Z 18/19Z 18/20Z 18/21Z 18/22Z 18/23Z 19/00Z 19/01Z 19/02Z 19/03Z 19/04Z 19/05Z
Temp91 95 97 99 99 100 99 97 93 90 88 88 86
Dewpt70 70 70 68 66 68 66 64 64 66 66 66 68
Altim29.93 29.92 29.91 29.89 29.88 29.87 29.86 29.85 29.84 29.86 29.89 29.91 29.93
VIS10 10 10 10 10 10 10 10 10 10 10 10 10
CIG-- -- -- -- -- -- -- -- -- -- -- -- --
CoverCLRCLRCLRCLRCLRCLRCLRCLRCLRCLRCLRCLR--
FltCatVFRVFRVFRVFRVFRVFRVFRVFRVFRVFRVFRVFRVFR
WX--------------------------
WDir170180150170160130150140150130130130150
WSpd11 10 10 13 8 11 8 12 10 8 8 8 9
WGst18 -- 16 -- 15 -- 15 -- -- -- -- -- --
Raw hourly METARs
KCPT 181655Z AUTO 17011G18KT 10SM CLR 33/21 A2993 RMK AO2
KCPT 181755Z AUTO 18010KT 140V200 10SM CLR 35/21 A2992 RMK AO2
KCPT 181855Z AUTO 15010G16KT 10SM CLR 36/21 A2991 RMK AO2
KCPT 181955Z AUTO 17013KT 10SM CLR 37/20 A2989 RMK AO2
KCPT 182055Z AUTO 16008G15KT 10SM CLR 37/19 A2988 RMK AO2
KCPT 182155Z AUTO 13011KT 10SM CLR 38/20 A2987 RMK AO2
KCPT 182255Z AUTO 15008G15KT 10SM CLR 37/19 A2986 RMK AO2
KCPT 182355Z AUTO 14012KT 10SM CLR 36/18 A2985 RMK AO2
KCPT 190055Z AUTO 15010KT 10SM CLR 34/18 A2984 RMK AO2
KCPT 190155Z AUTO 13008KT 10SM CLR 32/19 A2986 RMK AO2
KCPT 190255Z AUTO 13008KT 10SM CLR 31/19 A2989 RMK AO2
KCPT 190355Z AUTO 13008KT 10SM CLR 31/19 A2991 RMK AO2
KCPT 190455Z AUTO 15009KT 10SM 30/20 A2993 RMK AO2



Page loaded:  05:33 UTC  |   10:33 PM Pacific  |   11:33 PM Mountain  |   12:33 AM Central  |   01:33 AM Eastern

 

ADVISORIES

FORECASTS

FORECASTS

OBSERVATIONS

USER TOOLS

ABOUT US